Historique des mesures à Cassis (13260), France
Quotidien Résumé Juin 8, 2017 Unités:  Métrique    US   Métrique/US
« Précédent (Jour)
Suivant (Jour) »
Quotidien Hebdomadaire Mensuel Annuel Période au choix
  Maximum: Minimum: Moyenne:
Température: TemperatureC °C 16.9 °C 20.8 °C
Point de rosée: DewpointC °C 4.3 °C 9.7 °C
Humidité: Humidity % 39 % 47 %
Vitesse du vent: 0 km/h 0 km/h 6.4 km/h
Rafales: 0 km/h - -
Vent:- - South
Pression: PressurehPa hPa 1012.1 hPa -
Précipitations: 0.0 mm    
Historical Graphs
 
 
Mesures pour : Juin 8, 2017
Heure Temperature Point de rosée Pression Vent Vitesse du vent Rafales Humidité Pluie (par heure) Conditions
TemperatureC °C DewpointC °C PressurehPa hPa Calm     Humidity % HourlyPrecipMM mm SoftwareType W/m2
00:11 19.1 °C 4.8 °C 1012.1 hPa North 54.4 km/h 54.4 km/h 39 % 0.0 mm open2300-1.11 W/m2
01:10 18.9 °C 5.0 °C 1013.1 hPa Calm     40 % 0.0 mm open2300-1.11 W/m2
02:10 17.4 °C 4.6 °C 1013.4 hPa SE 9.8 km/h 9.8 km/h 43 % 0.0 mm open2300-1.11 W/m2
03:10 16.9 °C 4.5 °C 1012.8 hPa NNE 8 km/h 8 km/h 44 % 0.0 mm open2300-1.11 W/m2
04:10 17.1 °C 4.3 °C 1013.1 hPa NNE 2.3 km/h 7.6 km/h 43 % 0.0 mm open2300-1.11 W/m2
05:10 17.3 °C 4.8 °C 1013.4 hPa Calm   7.6 km/h 44 % 0.0 mm open2300-1.11 W/m2
06:10 16.9 °C 5.1 °C 1014.1 hPa NNW 7.6 km/h 7.6 km/h 46 % 0.0 mm open2300-1.11 W/m2
07:10 17.6 °C 6.4 °C 1014.1 hPa Calm   2.3 km/h 48 % 0.0 mm open2300-1.11 W/m2
08:10 21.3 °C 8.5 °C 1014.4 hPa Calm   2.3 km/h 44 % 0.0 mm open2300-1.11 W/m2
09:10 20.4 °C 8.3 °C 1014.8 hPa SE 5.1 km/h 12.2 km/h 46 % 0.0 mm open2300-1.11 W/m2
10:10 22.8 °C 10.5 °C 1015.5 hPa Calm   5.6 km/h 46 % 0.0 mm open2300-1.11 W/m2
11:10 26.3 °C 11.7 °C 1015.5 hPa WNW 2.9 km/h 3.4 km/h 40 % 0.0 mm open2300-1.11 W/m2
12:10 27.3 °C 12.9 °C 1015.8 hPa SSE 4.7 km/h 14.5 km/h 41 % 0.0 mm open2300-1.11 W/m2
13:10 27.6 °C 13.2 °C 1015.8 hPa South 9.3 km/h 9.8 km/h 41 % 0.0 mm open2300-1.11 W/m2
14:10 26.9 °C 13.6 °C 1015.8 hPa Calm   9.8 km/h 44 % 0.0 mm open2300-1.11 W/m2
15:10 26.4 °C 14.2 °C 1015.5 hPa West 1.8 km/h 17.9 km/h 47 % 0.0 mm open2300-1.11 W/m2
16:10 26.1 °C 14.9 °C 1014.8 hPa WSW 16.3 km/h 16.3 km/h 50 % 0.0 mm open2300-1.11 W/m2
17:10 24.9 °C 15.2 °C 1014.1 hPa SW 10.3 km/h 27.7 km/h 55 % 0.0 mm open2300-1.11 W/m2
18:10 24.1 °C 14.2 °C 1013.8 hPa SW 2.9 km/h 10.3 km/h 54 % 0.0 mm open2300-1.11 W/m2
19:10 22.9 °C 13.6 °C 1013.8 hPa SSE 9.3 km/h 10.3 km/h 56 % 0.0 mm open2300-1.11 W/m2
20:11 22.1 °C 13.7 °C 1013.4 hPa West 8.9 km/h 8.9 km/h 59 % 0.0 mm open2300-1.11 W/m2
21:10 21.1 °C 13.8 °C 1013.1 hPa South 3.4 km/h 3.4 km/h 63 % 0.0 mm open2300-1.11 W/m2
22:10 19.6 °C 13.1 °C 1013.4 hPa NNE 3.4 km/h 3.4 km/h 66 % 0.0 mm open2300-1.11 W/m2
23:10 19.1 °C 12.8 °C 1013.4 hPa Calm   2.9 km/h 67 % 0.0 mm open2300-1.11 W/m2
Observations météo à CASSIS
WU-History script by Weather Underground - 1 mb